sensor_id;sensor_type;location;lat;lon;timestamp;pressure;altitude;pressure_sealevel;temperature;humidity
6216;BME280;3141;49.234;9.326;2023-03-14T00:00:14;97916.88;;;14.29;76.03
6216;BME280;3141;49.234;9.326;2023-03-14T00:00:56;97919.06;;;14.32;75.45
6216;BME280;3141;49.234;9.326;2023-03-14T00:01:39;97917.72;;;14.23;75.64
6216;BME280;3141;49.234;9.326;2023-03-14T00:02:21;97920.97;;;14.25;75.25
6216;BME280;3141;49.234;9.326;2023-03-14T00:03:03;97932.75;;;14.35;75.57
6216;BME280;3141;49.234;9.326;2023-03-14T00:03:46;97919.41;;;14.17;75.55
6216;BME280;3141;49.234;9.326;2023-03-14T00:04:28;97910.34;;;14.25;75.72
6216;BME280;3141;49.234;9.326;2023-03-14T00:05:11;97925.34;;;14.37;75.38
6216;BME280;3141;49.234;9.326;2023-03-14T00:05:53;97924.91;;;14.40;74.75
6216;BME280;3141;49.234;9.326;2023-03-14T00:06:36;97903.88;;;14.39;74.88
6216;BME280;3141;49.234;9.326;2023-03-14T00:07:18;97917.28;;;14.26;75.12
6216;BME280;3141;49.234;9.326;2023-03-14T00:08:00;97908.34;;;14.20;74.81
6216;BME280;3141;49.234;9.326;2023-03-14T00:08:43;97903.50;;;14.35;74.85
6216;BME280;3141;49.234;9.326;2023-03-14T00:09:26;97908.63;;;14.48;74.39
6216;BME280;3141;49.234;9.326;2023-03-14T00:10:11;97902.22;;;14.56;74.18
6216;BME280;3141;49.234;9.326;2023-03-14T00:10:54;97905.34;;;14.53;74.44
6216;BME280;3141;49.234;9.326;2023-03-14T00:11:36;97902.38;;;14.43;74.94
6216;BME280;3141;49.234;9.326;2023-03-14T00:12:19;97915.50;;;14.38;75.17
6216;BME280;3141;49.234;9.326;2023-03-14T00:13:01;97907.25;;;14.46;74.83
6216;BME280;3141;49.234;9.326;2023-03-14T00:13:46;97923.13;;;14.52;74.10
6216;BME280;3141;49.234;9.326;2023-03-14T00:14:31;97925.78;;;14.52;73.91
6216;BME280;3141;49.234;9.326;2023-03-14T00:15:13;97922.34;;;14.34;74.56
6216;BME280;3141;49.234;9.326;2023-03-14T00:16:01;97921.28;;;14.35;75.00
6216;BME280;3141;49.234;9.326;2023-03-14T00:16:47;97919.31;;;14.30;75.50
6216;BME280;3141;49.234;9.326;2023-03-14T00:17:30;97921.41;;;14.22;75.93
6216;BME280;3141;49.234;9.326;2023-03-14T00:18:12;97927.06;;;14.32;75.90
6216;BME280;3141;49.234;9.326;2023-03-14T00:18:54;97931.09;;;14.34;75.95
6216;BME280;3141;49.234;9.326;2023-03-14T00:19:37;97928.16;;;14.42;75.92
6216;BME280;3141;49.234;9.326;2023-03-14T00:20:19;97938.34;;;14.45;76.06
6216;BME280;3141;49.234;9.326;2023-03-14T00:21:03;97926.28;;;14.43;75.62
6216;BME280;3141;49.234;9.326;2023-03-14T00:21:46;97933.84;;;14.46;75.47
6216;BME280;3141;49.234;9.326;2023-03-14T00:22:28;97942.91;;;14.38;75.95
6216;BME280;3141;49.234;9.326;2023-03-14T00:23:11;97936.78;;;14.38;75.98
6216;BME280;3141;49.234;9.326;2023-03-14T00:23:53;97943.28;;;14.42;75.56
6216;BME280;3141;49.234;9.326;2023-03-14T00:24:35;97935.00;;;14.50;75.11
6216;BME280;3141;49.234;9.326;2023-03-14T00:25:18;97937.88;;;14.48;75.25
6216;BME280;3141;49.234;9.326;2023-03-14T00:26:02;97945.13;;;14.41;75.67
6216;BME280;3141;49.234;9.326;2023-03-14T00:26:44;97944.91;;;14.43;75.50
6216;BME280;3141;49.234;9.326;2023-03-14T00:27:27;97945.22;;;14.53;75.40
6216;BME280;3141;49.234;9.326;2023-03-14T00:28:09;97945.88;;;14.30;76.21
6216;BME280;3141;49.234;9.326;2023-03-14T00:28:52;97946.09;;;14.47;75.53
6216;BME280;3141;49.234;9.326;2023-03-14T00:29:35;97948.47;;;14.37;75.57
6216;BME280;3141;49.234;9.326;2023-03-14T00:30:17;97943.88;;;14.44;75.74
6216;BME280;3141;49.234;9.326;2023-03-14T00:31:03;97959.38;;;14.47;75.83
6216;BME280;3141;49.234;9.326;2023-03-14T00:31:46;97950.44;;;14.41;75.61
6216;BME280;3141;49.234;9.326;2023-03-14T00:32:28;97945.94;;;14.42;75.58
6216;BME280;3141;49.234;9.326;2023-03-14T00:33:10;97947.41;;;14.38;75.75
6216;BME280;3141;49.234;9.326;2023-03-14T00:33:53;97957.75;;;14.28;76.38
6216;BME280;3141;49.234;9.326;2023-03-14T00:34:35;97955.50;;;14.25;76.49
6216;BME280;3141;49.234;9.326;2023-03-14T00:35:18;97957.66;;;14.34;76.11
6216;BME280;3141;49.234;9.326;2023-03-14T00:36:06;97952.13;;;14.36;76.37
6216;BME280;3141;49.234;9.326;2023-03-14T00:36:50;97945.50;;;14.27;76.53
6216;BME280;3141;49.234;9.326;2023-03-14T00:37:33;97947.63;;;14.36;76.82
6216;BME280;3141;49.234;9.326;2023-03-14T00:38:15;97941.00;;;14.45;76.08
6216;BME280;3141;49.234;9.326;2023-03-14T00:38:57;97946.81;;;14.54;75.56
6216;BME280;3141;49.234;9.326;2023-03-14T00:39:40;97952.00;;;14.49;75.66
6216;BME280;3141;49.234;9.326;2023-03-14T00:40:22;97948.84;;;14.40;76.16
6216;BME280;3141;49.234;9.326;2023-03-14T00:41:12;97943.16;;;14.37;76.07
6216;BME280;3141;49.234;9.326;2023-03-14T00:41:55;97934.34;;;14.36;76.29
6216;BME280;3141;49.234;9.326;2023-03-14T00:42:37;97939.53;;;14.31;76.46
6216;BME280;3141;49.234;9.326;2023-03-14T00:43:20;97932.38;;;14.32;77.08
6216;BME280;3141;49.234;9.326;2023-03-14T00:44:05;97935.91;;;14.44;76.60
6216;BME280;3141;49.234;9.326;2023-03-14T00:44:48;97935.91;;;14.44;76.62
6216;BME280;3141;49.234;9.326;2023-03-14T00:45:30;97936.50;;;14.28;77.01
6216;BME280;3141;49.234;9.326;2023-03-14T00:46:12;97929.94;;;14.24;76.65
6216;BME280;3141;49.234;9.326;2023-03-14T00:46:55;97933.25;;;14.26;76.92
6216;BME280;3141;49.234;9.326;2023-03-14T00:47:37;97933.97;;;14.33;76.81
6216;BME280;3141;49.234;9.326;2023-03-14T00:48:20;97939.75;;;14.30;76.57
6216;BME280;3141;49.234;9.326;2023-03-14T00:49:02;97935.84;;;14.32;76.81
6216;BME280;3141;49.234;9.326;2023-03-14T00:49:45;97934.13;;;14.38;76.71
6216;BME280;3141;49.234;9.326;2023-03-14T00:50:27;97939.38;;;14.26;76.91
6216;BME280;3141;49.234;9.326;2023-03-14T00:51:09;97932.53;;;14.12;77.65
6216;BME280;3141;49.234;9.326;2023-03-14T00:51:53;97929.25;;;14.17;77.34
6216;BME280;3141;49.234;9.326;2023-03-14T00:52:35;97928.50;;;14.28;76.85
6216;BME280;3141;49.234;9.326;2023-03-14T00:53:18;97930.88;;;14.36;76.61
6216;BME280;3141;49.234;9.326;2023-03-14T00:54:00;97937.22;;;14.35;76.58
6216;BME280;3141;49.234;9.326;2023-03-14T00:54:42;97936.41;;;14.34;76.66
6216;BME280;3141;49.234;9.326;2023-03-14T00:55:25;97934.44;;;14.30;76.91
6216;BME280;3141;49.234;9.326;2023-03-14T00:56:09;97934.75;;;14.15;77.82
6216;BME280;3141;49.234;9.326;2023-03-14T00:56:52;97931.66;;;14.18;77.49
6216;BME280;3141;49.234;9.326;2023-03-14T00:57:34;97931.91;;;14.17;77.64
6216;BME280;3141;49.234;9.326;2023-03-14T00:58:17;97932.84;;;14.22;77.42
6216;BME280;3141;49.234;9.326;2023-03-14T00:59:00;97932.00;;;14.28;77.25
6216;BME280;3141;49.234;9.326;2023-03-14T00:59:42;97938.16;;;14.22;77.43
6216;BME280;3141;49.234;9.326;2023-03-14T01:00:24;97922.28;;;14.16;77.64
6216;BME280;3141;49.234;9.326;2023-03-14T01:01:09;97932.81;;;14.29;77.19
6216;BME280;3141;49.234;9.326;2023-03-14T01:01:51;97931.78;;;14.30;76.83
6216;BME280;3141;49.234;9.326;2023-03-14T01:02:34;97929.13;;;14.30;77.38
6216;BME280;3141;49.234;9.326;2023-03-14T01:03:16;97922.59;;;14.26;77.45
6216;BME280;3141;49.234;9.326;2023-03-14T01:03:58;97924.50;;;14.19;77.70
6216;BME280;3141;49.234;9.326;2023-03-14T01:04:40;97930.16;;;14.29;76.98
6216;BME280;3141;49.234;9.326;2023-03-14T01:05:25;97926.72;;;14.22;77.74
6216;BME280;3141;49.234;9.326;2023-03-14T01:06:11;97932.91;;;14.16;78.20
6216;BME280;3141;49.234;9.326;2023-03-14T01:06:54;97927.16;;;14.19;77.81
6216;BME280;3141;49.234;9.326;2023-03-14T01:07:37;97933.25;;;14.26;77.56
6216;BME280;3141;49.234;9.326;2023-03-14T01:08:19;97936.09;;;14.24;77.53
6216;BME280;3141;49.234;9.326;2023-03-14T01:09:01;97940.19;;;14.27;77.78
6216;BME280;3141;49.234;9.326;2023-03-14T01:09:44;97932.00;;;14.28;77.11
6216;BME280;3141;49.234;9.326;2023-03-14T01:10:28;97934.09;;;14.20;78.02
6216;BME280;3141;49.234;9.326;2023-03-14T01:11:16;97931.72;;;14.12;78.43
6216;BME280;3141;49.234;9.326;2023-03-14T01:11:59;97930.47;;;14.14;78.57
6216;BME280;3141;49.234;9.326;2023-03-14T01:12:42;97935.78;;;14.14;78.71
6216;BME280;3141;49.234;9.326;2023-03-14T01:13:24;97935.19;;;14.12;78.65
6216;BME280;3141;49.234;9.326;2023-03-14T01:14:06;97936.16;;;14.18;78.82
6216;BME280;3141;49.234;9.326;2023-03-14T01:14:49;97938.56;;;14.26;77.88
6216;BME280;3141;49.234;9.326;2023-03-14T01:15:35;97935.19;;;14.12;78.51
6216;BME280;3141;49.234;9.326;2023-03-14T01:16:19;97937.47;;;14.09;79.05
6216;BME280;3141;49.234;9.326;2023-03-14T01:17:01;97939.75;;;14.05;79.05
6216;BME280;3141;49.234;9.326;2023-03-14T01:17:43;97933.13;;;14.14;79.00
6216;BME280;3141;49.234;9.326;2023-03-14T01:18:26;97932.03;;;14.22;78.60
6216;BME280;3141;49.234;9.326;2023-03-14T01:19:09;97931.81;;;14.23;78.30
6216;BME280;3141;49.234;9.326;2023-03-14T01:19:51;97924.84;;;14.22;78.49
6216;BME280;3141;49.234;9.326;2023-03-14T01:20:33;97931.22;;;14.21;78.17
6216;BME280;3141;49.234;9.326;2023-03-14T01:21:59;97927.50;;;14.29;77.64
6216;BME280;3141;49.234;9.326;2023-03-14T01:22:43;97925.03;;;14.27;77.79
6216;BME280;3141;49.234;9.326;2023-03-14T01:23:25;97921.09;;;14.12;78.75
6216;BME280;3141;49.234;9.326;2023-03-14T01:24:10;97917.56;;;14.18;78.54
6216;BME280;3141;49.234;9.326;2023-03-14T01:24:53;97923.97;;;14.10;79.35
6216;BME280;3141;49.234;9.326;2023-03-14T01:25:40;97918.13;;;14.26;78.34
6216;BME280;3141;49.234;9.326;2023-03-14T01:26:24;97919.63;;;14.16;78.62
6216;BME280;3141;49.234;9.326;2023-03-14T01:27:07;97927.91;;;14.26;78.55
6216;BME280;3141;49.234;9.326;2023-03-14T01:27:49;97909.09;;;14.27;78.46
6216;BME280;3141;49.234;9.326;2023-03-14T01:28:32;97918.97;;;14.20;78.58
6216;BME280;3141;49.234;9.326;2023-03-14T01:29:14;97902.22;;;14.20;78.37
6216;BME280;3141;49.234;9.326;2023-03-14T01:29:56;97913.72;;;14.14;78.73
6216;BME280;3141;49.234;9.326;2023-03-14T01:30:39;97907.81;;;14.12;79.30
6216;BME280;3141;49.234;9.326;2023-03-14T01:31:21;97909.97;;;14.21;78.46
6216;BME280;3141;49.234;9.326;2023-03-14T01:32:04;97912.09;;;14.13;78.64
6216;BME280;3141;49.234;9.326;2023-03-14T01:32:46;97906.78;;;14.13;79.06
6216;BME280;3141;49.234;9.326;2023-03-14T01:33:29;97913.66;;;14.20;78.70
6216;BME280;3141;49.234;9.326;2023-03-14T01:34:11;97917.66;;;14.29;78.39
6216;BME280;3141;49.234;9.326;2023-03-14T01:34:53;97905.19;;;14.30;77.57
6216;BME280;3141;49.234;9.326;2023-03-14T01:35:36;97907.09;;;14.23;77.62
6216;BME280;3141;49.234;9.326;2023-03-14T01:36:18;97912.47;;;14.16;78.55
6216;BME280;3141;49.234;9.326;2023-03-14T01:37:00;97907.16;;;14.16;78.42
6216;BME280;3141;49.234;9.326;2023-03-14T01:37:43;97902.16;;;14.26;78.00
6216;BME280;3141;49.234;9.326;2023-03-14T01:38:25;97909.47;;;14.31;77.85
6216;BME280;3141;49.234;9.326;2023-03-14T01:39:07;97902.16;;;14.26;78.09
6216;BME280;3141;49.234;9.326;2023-03-14T01:39:50;97895.72;;;14.16;78.39
6216;BME280;3141;49.234;9.326;2023-03-14T01:40:33;97886.00;;;14.28;77.99
6216;BME280;3141;49.234;9.326;2023-03-14T01:41:21;97881.78;;;14.20;78.32
6216;BME280;3141;49.234;9.326;2023-03-14T01:42:04;97877.63;;;14.24;78.14
6216;BME280;3141;49.234;9.326;2023-03-14T01:42:54;97876.09;;;14.35;77.60
6216;BME280;3141;49.234;9.326;2023-03-14T01:43:37;97865.25;;;14.36;77.23
6216;BME280;3141;49.234;9.326;2023-03-14T01:44:19;97875.97;;;14.30;77.45
6216;BME280;3141;49.234;9.326;2023-03-14T01:45:02;97853.50;;;14.08;77.96
6216;BME280;3141;49.234;9.326;2023-03-14T01:46:48;97855.53;;;14.24;77.56
6216;BME280;3141;49.234;9.326;2023-03-14T01:47:31;97852.69;;;14.25;77.49
6216;BME280;3141;49.234;9.326;2023-03-14T01:48:13;97847.19;;;14.27;76.95
6216;BME280;3141;49.234;9.326;2023-03-14T01:48:57;97844.22;;;14.17;77.44
6216;BME280;3141;49.234;9.326;2023-03-14T01:49:41;97851.28;;;14.23;77.31
6216;BME280;3141;49.234;9.326;2023-03-14T01:50:25;97839.59;;;14.24;77.11
6216;BME280;3141;49.234;9.326;2023-03-14T01:51:11;97842.59;;;14.34;76.48
6216;BME280;3141;49.234;9.326;2023-03-14T01:52:57;97836.69;;;14.32;76.32
6216;BME280;3141;49.234;9.326;2023-03-14T01:53:41;97833.56;;;14.35;76.35
6216;BME280;3141;49.234;9.326;2023-03-14T01:54:28;97820.78;;;14.25;76.38
6216;BME280;3141;49.234;9.326;2023-03-14T01:55:15;97818.06;;;14.32;76.09
6216;BME280;3141;49.234;9.326;2023-03-14T01:55:59;97816.88;;;14.46;75.53
6216;BME280;3141;49.234;9.326;2023-03-14T01:56:45;97822.91;;;14.53;75.07
6216;BME280;3141;49.234;9.326;2023-03-14T01:57:35;97823.91;;;14.40;75.57
6216;BME280;3141;49.234;9.326;2023-03-14T01:58:19;97815.28;;;14.27;75.48
6216;BME280;3141;49.234;9.326;2023-03-14T01:59:04;97809.97;;;14.27;75.27
6216;BME280;3141;49.234;9.326;2023-03-14T01:59:53;97808.09;;;14.27;75.14
6216;BME280;3141;49.234;9.326;2023-03-14T02:00:37;97803.50;;;14.34;75.04
6216;BME280;3141;49.234;9.326;2023-03-14T02:01:21;97799.00;;;14.35;75.00
6216;BME280;3141;49.234;9.326;2023-03-14T02:02:07;97800.78;;;14.41;74.62
6216;BME280;3141;49.234;9.326;2023-03-14T02:02:57;97802.63;;;14.40;74.87
6216;BME280;3141;49.234;9.326;2023-03-14T02:03:51;97799.25;;;14.33;74.98
6216;BME280;3141;49.234;9.326;2023-03-14T02:04:35;97800.91;;;14.46;74.54
6216;BME280;3141;49.234;9.326;2023-03-14T02:05:21;97799.78;;;14.53;74.22
6216;BME280;3141;49.234;9.326;2023-03-14T02:06:06;97796.50;;;14.40;74.38
6216;BME280;3141;49.234;9.326;2023-03-14T02:06:54;97802.06;;;14.50;74.09
6216;BME280;3141;49.234;9.326;2023-03-14T02:07:46;97803.56;;;14.46;74.63
6216;BME280;3141;49.234;9.326;2023-03-14T02:08:30;97808.91;;;14.28;75.28
6216;BME280;3141;49.234;9.326;2023-03-14T02:09:13;97808.38;;;14.19;75.78
6216;BME280;3141;49.234;9.326;2023-03-14T02:09:56;97797.03;;;14.30;75.33
6216;BME280;3141;49.234;9.326;2023-03-14T02:10:43;97809.31;;;14.43;74.88
6216;BME280;3141;49.234;9.326;2023-03-14T02:11:28;97803.75;;;14.15;75.42
6216;BME280;3141;49.234;9.326;2023-03-14T02:12:14;97807.56;;;14.19;75.51
6216;BME280;3141;49.234;9.326;2023-03-14T02:13:00;97807.16;;;14.04;75.82
6216;BME280;3141;49.234;9.326;2023-03-14T02:13:44;97806.41;;;14.15;75.32
6216;BME280;3141;49.234;9.326;2023-03-14T02:14:34;97811.19;;;14.24;75.08
6216;BME280;3141;49.234;9.326;2023-03-14T02:15:16;97809.97;;;14.27;74.86
6216;BME280;3141;49.234;9.326;2023-03-14T02:15:59;97807.91;;;14.29;74.47
6216;BME280;3141;49.234;9.326;2023-03-14T02:16:41;97808.53;;;14.24;74.85
6216;BME280;3141;49.234;9.326;2023-03-14T02:17:24;97801.53;;;14.30;74.72
6216;BME280;3141;49.234;9.326;2023-03-14T02:18:07;97811.94;;;14.31;74.79
6216;BME280;3141;49.234;9.326;2023-03-14T02:18:50;97809.50;;;14.12;75.53
6216;BME280;3141;49.234;9.326;2023-03-14T02:21:00;97811.56;;;14.46;74.25
6216;BME280;3141;49.234;9.326;2023-03-14T02:22:06;97811.25;;;14.36;74.16
6216;BME280;3141;49.234;9.326;2023-03-14T02:22:49;97807.69;;;14.30;74.27
6216;BME280;3141;49.234;9.326;2023-03-14T02:23:58;97809.69;;;14.46;73.51
6216;BME280;3141;49.234;9.326;2023-03-14T02:26:32;97815.31;;;14.38;73.50
6216;BME280;3141;49.234;9.326;2023-03-14T02:27:17;97814.22;;;14.28;73.88
6216;BME280;3141;49.234;9.326;2023-03-14T02:28:01;97821.00;;;14.42;73.70
6216;BME280;3141;49.234;9.326;2023-03-14T02:28:44;97816.66;;;14.29;73.58
6216;BME280;3141;49.234;9.326;2023-03-14T02:29:27;97814.97;;;14.35;73.64
6216;BME280;3141;49.234;9.326;2023-03-14T02:30:20;97816.94;;;14.39;73.08
6216;BME280;3141;49.234;9.326;2023-03-14T02:31:03;97822.19;;;14.46;72.98
6216;BME280;3141;49.234;9.326;2023-03-14T02:31:45;97817.03;;;14.33;73.38
6216;BME280;3141;49.234;9.326;2023-03-14T02:32:30;97819.56;;;14.28;73.52
6216;BME280;3141;49.234;9.326;2023-03-14T02:33:18;97814.50;;;14.38;73.02
6216;BME280;3141;49.234;9.326;2023-03-14T02:34:02;97811.69;;;14.51;72.44
6216;BME280;3141;49.234;9.326;2023-03-14T02:34:48;97805.72;;;14.19;72.75
6216;BME280;3141;49.234;9.326;2023-03-14T02:35:35;97801.59;;;14.23;73.26
6216;BME280;3141;49.234;9.326;2023-03-14T02:36:19;97810.38;;;14.24;73.07
6216;BME280;3141;49.234;9.326;2023-03-14T02:37:02;97804.44;;;14.28;72.52
6216;BME280;3141;49.234;9.326;2023-03-14T02:38:00;97806.84;;;14.30;72.71
6216;BME280;3141;49.234;9.326;2023-03-14T02:38:58;97814.94;;;14.53;71.54
6216;BME280;3141;49.234;9.326;2023-03-14T02:39:44;97813.28;;;14.52;71.54
6216;BME280;3141;49.234;9.326;2023-03-14T02:40:26;97809.34;;;14.25;72.18
6216;BME280;3141;49.234;9.326;2023-03-14T02:41:09;97809.91;;;14.45;71.99
6216;BME280;3141;49.234;9.326;2023-03-14T02:41:52;97811.06;;;14.37;71.99
6216;BME280;3141;49.234;9.326;2023-03-14T02:42:34;97803.88;;;14.38;72.00
6216;BME280;3141;49.234;9.326;2023-03-14T02:43:16;97798.13;;;14.41;71.68
6216;BME280;3141;49.234;9.326;2023-03-14T02:43:59;97797.53;;;14.39;72.13
6216;BME280;3141;49.234;9.326;2023-03-14T02:45:52;97797.34;;;14.52;71.75
6216;BME280;3141;49.234;9.326;2023-03-14T02:46:35;97795.16;;;14.49;72.04
6216;BME280;3141;49.234;9.326;2023-03-14T02:47:19;97789.28;;;14.58;71.89
6216;BME280;3141;49.234;9.326;2023-03-14T02:48:06;97791.97;;;14.70;71.14
6216;BME280;3141;49.234;9.326;2023-03-14T02:48:53;97792.69;;;14.77;70.68
6216;BME280;3141;49.234;9.326;2023-03-14T02:49:37;97790.56;;;14.67;70.83
6216;BME280;3141;49.234;9.326;2023-03-14T02:50:21;97785.75;;;14.46;71.78
6216;BME280;3141;49.234;9.326;2023-03-14T02:51:04;97787.50;;;14.41;72.32
6216;BME280;3141;49.234;9.326;2023-03-14T02:51:47;97787.06;;;14.55;71.85
6216;BME280;3141;49.234;9.326;2023-03-14T02:52:30;97789.63;;;14.62;71.45
6216;BME280;3141;49.234;9.326;2023-03-14T02:53:16;97797.59;;;14.62;71.72
6216;BME280;3141;49.234;9.326;2023-03-14T02:53:59;97797.47;;;14.57;71.93
6216;BME280;3141;49.234;9.326;2023-03-14T02:54:41;97798.84;;;14.48;72.51
6216;BME280;3141;49.234;9.326;2023-03-14T02:55:24;97792.31;;;14.32;72.58
6216;BME280;3141;49.234;9.326;2023-03-14T02:56:09;97789.78;;;14.37;72.83
6216;BME280;3141;49.234;9.326;2023-03-14T02:56:52;97789.69;;;14.44;72.44
6216;BME280;3141;49.234;9.326;2023-03-14T02:57:34;97790.53;;;14.44;72.39
6216;BME280;3141;49.234;9.326;2023-03-14T02:58:17;97788.53;;;14.51;72.30
6216;BME280;3141;49.234;9.326;2023-03-14T02:59:04;97784.06;;;14.52;72.20
6216;BME280;3141;49.234;9.326;2023-03-14T02:59:47;97778.28;;;14.55;72.15
6216;BME280;3141;49.234;9.326;2023-03-14T03:00:29;97784.69;;;14.36;72.38
6216;BME280;3141;49.234;9.326;2023-03-14T03:01:12;97789.31;;;14.29;73.08
6216;BME280;3141;49.234;9.326;2023-03-14T03:01:55;97780.88;;;14.32;73.06
6216;BME280;3141;49.234;9.326;2023-03-14T03:02:37;97786.06;;;14.27;73.30
6216;BME280;3141;49.234;9.326;2023-03-14T03:03:20;97783.28;;;14.33;73.14
6216;BME280;3141;49.234;9.326;2023-03-14T03:04:02;97788.28;;;14.41;72.78
6216;BME280;3141;49.234;9.326;2023-03-14T03:04:45;97775.63;;;14.55;72.25
6216;BME280;3141;49.234;9.326;2023-03-14T03:05:27;97777.66;;;14.41;72.65
6216;BME280;3141;49.234;9.326;2023-03-14T03:06:09;97773.06;;;14.48;72.48
6216;BME280;3141;49.234;9.326;2023-03-14T03:06:52;97769.81;;;14.46;72.76
6216;BME280;3141;49.234;9.326;2023-03-14T03:07:34;97774.56;;;14.44;72.59
6216;BME280;3141;49.234;9.326;2023-03-14T03:08:18;97787.03;;;14.44;72.70
6216;BME280;3141;49.234;9.326;2023-03-14T03:09:01;97787.63;;;14.46;72.77
6216;BME280;3141;49.234;9.326;2023-03-14T03:09:43;97791.22;;;14.51;72.39
6216;BME280;3141;49.234;9.326;2023-03-14T03:10:27;97789.56;;;14.39;72.43
6216;BME280;3141;49.234;9.326;2023-03-14T03:11:09;97779.28;;;14.42;72.22
6216;BME280;3141;49.234;9.326;2023-03-14T03:11:52;97781.25;;;14.47;72.07
6216;BME280;3141;49.234;9.326;2023-03-14T03:12:34;97776.19;;;14.45;71.91
6216;BME280;3141;49.234;9.326;2023-03-14T03:13:17;97770.97;;;14.39;72.27
6216;BME280;3141;49.234;9.326;2023-03-14T03:13:59;97763.97;;;14.26;72.29
6216;BME280;3141;49.234;9.326;2023-03-14T03:14:42;97773.16;;;14.42;72.00
6216;BME280;3141;49.234;9.326;2023-03-14T03:15:25;97767.84;;;14.42;71.92
6216;BME280;3141;49.234;9.326;2023-03-14T03:16:07;97768.31;;;14.39;72.11
6216;BME280;3141;49.234;9.326;2023-03-14T03:16:50;97767.84;;;14.42;72.34
6216;BME280;3141;49.234;9.326;2023-03-14T03:17:32;97762.75;;;14.40;72.33
6216;BME280;3141;49.234;9.326;2023-03-14T03:18:15;97761.81;;;14.35;72.64
6216;BME280;3141;49.234;9.326;2023-03-14T03:18:57;97762.84;;;14.34;72.24
6216;BME280;3141;49.234;9.326;2023-03-14T03:19:40;97758.66;;;14.26;72.29
6216;BME280;3141;49.234;9.326;2023-03-14T03:20:22;97755.13;;;14.44;71.68
6216;BME280;3141;49.234;9.326;2023-03-14T03:21:05;97752.59;;;14.49;71.42
6216;BME280;3141;49.234;9.326;2023-03-14T03:21:49;97756.31;;;14.48;71.39
6216;BME280;3141;49.234;9.326;2023-03-14T03:22:32;97752.59;;;14.37;71.78
6216;BME280;3141;49.234;9.326;2023-03-14T03:23:14;97747.56;;;14.29;71.82
6216;BME280;3141;49.234;9.326;2023-03-14T03:23:57;97760.06;;;14.29;71.53
6216;BME280;3141;49.234;9.326;2023-03-14T03:24:39;97770.81;;;14.34;71.53
6216;BME280;3141;49.234;9.326;2023-03-14T03:25:21;97765.88;;;14.37;71.29
6216;BME280;3141;49.234;9.326;2023-03-14T03:26:04;97768.72;;;14.36;70.89
6216;BME280;3141;49.234;9.326;2023-03-14T03:26:46;97765.88;;;14.37;70.90
6216;BME280;3141;49.234;9.326;2023-03-14T03:27:30;97767.47;;;14.38;70.70
6216;BME280;3141;49.234;9.326;2023-03-14T03:28:13;97755.97;;;14.44;70.23
6216;BME280;3141;49.234;9.326;2023-03-14T03:28:56;97760.59;;;14.49;69.97
6216;BME280;3141;49.234;9.326;2023-03-14T03:29:38;97757.44;;;14.40;70.19
6216;BME280;3141;49.234;9.326;2023-03-14T03:30:20;97751.88;;;14.42;69.99
6216;BME280;3141;49.234;9.326;2023-03-14T03:31:10;97745.84;;;14.35;70.38
6216;BME280;3141;49.234;9.326;2023-03-14T03:31:53;97741.28;;;14.24;70.87
6216;BME280;3141;49.234;9.326;2023-03-14T03:32:35;97739.00;;;14.27;70.96
6216;BME280;3141;49.234;9.326;2023-03-14T03:33:17;97745.56;;;14.25;70.92
6216;BME280;3141;49.234;9.326;2023-03-14T03:34:00;97744.75;;;14.24;70.95
6216;BME280;3141;49.234;9.326;2023-03-14T03:34:42;97739.66;;;14.23;71.09
6216;BME280;3141;49.234;9.326;2023-03-14T03:35:24;97738.84;;;14.40;70.59
6216;BME280;3141;49.234;9.326;2023-03-14T03:36:08;97740.50;;;14.53;70.12
6216;BME280;3141;49.234;9.326;2023-03-14T03:36:50;97754.69;;;14.47;69.78
6216;BME280;3141;49.234;9.326;2023-03-14T03:37:33;97751.88;;;14.42;70.13
6216;BME280;3141;49.234;9.326;2023-03-14T03:38:16;97744.47;;;14.32;70.22
6216;BME280;3141;49.234;9.326;2023-03-14T03:38:58;97745.88;;;14.17;71.07
6216;BME280;3141;49.234;9.326;2023-03-14T03:39:41;97748.63;;;14.28;70.46
6216;BME280;3141;49.234;9.326;2023-03-14T03:40:23;97745.44;;;14.20;70.54
6216;BME280;3141;49.234;9.326;2023-03-14T03:41:06;97745.59;;;14.07;70.35
6216;BME280;3141;49.234;9.326;2023-03-14T03:41:49;97741.28;;;14.24;70.15
6216;BME280;3141;49.234;9.326;2023-03-14T03:42:32;97740.78;;;14.33;69.91
6216;BME280;3141;49.234;9.326;2023-03-14T03:43:15;97743.44;;;14.15;70.41
6216;BME280;3141;49.234;9.326;2023-03-14T03:43:57;97745.13;;;14.28;70.08
6216;BME280;3141;49.234;9.326;2023-03-14T03:44:39;97744.75;;;14.24;70.07
6216;BME280;3141;49.234;9.326;2023-03-14T03:45:22;97746.91;;;14.16;70.11
6216;BME280;3141;49.234;9.326;2023-03-14T03:46:05;97746.56;;;14.30;70.01
6216;BME280;3141;49.234;9.326;2023-03-14T03:46:48;97747.41;;;14.24;70.03
6216;BME280;3141;49.234;9.326;2023-03-14T03:47:31;97743.94;;;14.24;70.12
6216;BME280;3141;49.234;9.326;2023-03-14T03:48:13;97748.22;;;14.25;70.17
6216;BME280;3141;49.234;9.326;2023-03-14T03:48:57;97748.22;;;14.25;70.03
6216;BME280;3141;49.234;9.326;2023-03-14T03:49:39;97752.09;;;14.29;69.52
6216;BME280;3141;49.234;9.326;2023-03-14T03:50:22;97755.00;;;14.39;69.64
6216;BME280;3141;49.234;9.326;2023-03-14T03:51:04;97750.28;;;14.41;69.61
6216;BME280;3141;49.234;9.326;2023-03-14T03:51:47;97752.44;;;14.32;70.01
6216;BME280;3141;49.234;9.326;2023-03-14T03:52:29;97752.53;;;14.26;69.76
6216;BME280;3141;49.234;9.326;2023-03-14T03:53:12;97752.13;;;14.22;70.19
6216;BME280;3141;49.234;9.326;2023-03-14T03:53:56;97760.97;;;14.05;70.33
6216;BME280;3141;49.234;9.326;2023-03-14T03:54:38;97750.63;;;13.97;71.23
6216;BME280;3141;49.234;9.326;2023-03-14T03:55:20;97748.38;;;14.12;70.54
6216;BME280;3141;49.234;9.326;2023-03-14T03:56:03;97748.56;;;14.17;70.41
6216;BME280;3141;49.234;9.326;2023-03-14T03:56:45;97739.56;;;14.00;70.85
6216;BME280;3141;49.234;9.326;2023-03-14T03:57:27;97742.88;;;14.13;70.55
6216;BME280;3141;49.234;9.326;2023-03-14T03:58:10;97742.06;;;14.13;70.44
6216;BME280;3141;49.234;9.326;2023-03-14T03:58:52;97743.34;;;13.92;70.73
6216;BME280;3141;49.234;9.326;2023-03-14T03:59:34;97739.28;;;13.89;71.26
6216;BME280;3141;49.234;9.326;2023-03-14T04:00:17;97733.84;;;13.84;71.20
6216;BME280;3141;49.234;9.326;2023-03-14T04:00:59;97738.84;;;13.93;71.20
6216;BME280;3141;49.234;9.326;2023-03-14T04:01:42;97740.97;;;13.84;71.28
6216;BME280;3141;49.234;9.326;2023-03-14T04:02:24;97740.09;;;13.90;70.75
6216;BME280;3141;49.234;9.326;2023-03-14T04:03:06;97740.00;;;13.97;70.57
6216;BME280;3141;49.234;9.326;2023-03-14T04:03:49;97738.53;;;14.01;70.46
6216;BME280;3141;49.234;9.326;2023-03-14T04:04:31;97740.41;;;14.12;70.06